createdAt,value
2022-10-04T00:01:51.691Z,8.30
2022-10-04T00:04:34.688Z,8.30
2022-10-04T00:07:18.325Z,8.30
2022-10-04T00:09:52.189Z,8.20
2022-10-04T00:12:23.593Z,8.20
2022-10-04T00:14:53.121Z,8.20
2022-10-04T00:17:29.832Z,8.20
2022-10-04T00:19:56.622Z,8.20
2022-10-04T00:22:31.476Z,8.20
2022-10-04T00:25:17.468Z,8.10
2022-10-04T00:28:21.414Z,8.20
2022-10-04T00:31:08.987Z,8.20
2022-10-04T00:33:48.960Z,8.20
2022-10-04T00:36:24.434Z,8.00
2022-10-04T00:39:07.637Z,8.00
2022-10-04T00:41:53.316Z,8.10
2022-10-04T00:44:35.030Z,8.10
2022-10-04T00:47:05.093Z,8.20
2022-10-04T00:49:41.634Z,8.10
2022-10-04T00:52:14.907Z,8.00
2022-10-04T00:54:50.316Z,8.10
2022-10-04T00:57:31.474Z,8.10
2022-10-04T01:00:05.779Z,8.00
2022-10-04T01:02:46.514Z,8.00
2022-10-04T01:05:17.862Z,8.00
2022-10-04T01:08:02.385Z,8.10
2022-10-04T01:10:39.301Z,8.00
2022-10-04T01:13:29.912Z,7.90
2022-10-04T01:16:02.778Z,7.80
2022-10-04T01:18:32.665Z,7.80
2022-10-04T01:21:08.426Z,7.90
2022-10-04T01:23:38.148Z,7.90
2022-10-04T01:26:07.471Z,7.90
2022-10-04T01:28:35.321Z,7.90
2022-10-04T01:31:02.227Z,7.90
2022-10-04T01:33:29.955Z,7.80
2022-10-04T01:35:57.389Z,7.60
2022-10-04T01:38:24.171Z,7.50
2022-10-04T01:40:56.780Z,7.60
2022-10-04T01:43:31.900Z,7.70
2022-10-04T01:46:22.983Z,7.70
2022-10-04T01:48:49.713Z,7.70
2022-10-04T01:51:24.709Z,7.70
2022-10-04T01:53:58.368Z,7.60
2022-10-04T01:56:39.212Z,7.60
2022-10-04T01:59:14.169Z,7.60
2022-10-04T02:01:54.115Z,7.60
2022-10-04T02:04:34.651Z,7.70
2022-10-04T02:07:03.393Z,7.60
2022-10-04T02:09:34.336Z,7.70
2022-10-04T02:12:01.881Z,7.70
2022-10-04T02:14:35.707Z,7.60
2022-10-04T02:17:07.947Z,7.60
2022-10-04T02:19:40.609Z,7.60
2022-10-04T02:22:10.718Z,7.60
2022-10-04T02:24:42.072Z,7.60
2022-10-04T02:27:08.928Z,7.60
2022-10-04T02:29:35.737Z,7.50
2022-10-04T02:32:24.574Z,7.70
2022-10-04T02:34:52.385Z,7.80
2022-10-04T02:37:21.035Z,7.70
2022-10-04T02:40:08.366Z,7.70
2022-10-04T02:42:43.212Z,7.60
2022-10-04T02:45:19.200Z,7.70
2022-10-04T02:47:52.828Z,7.60
2022-10-04T02:50:24.441Z,7.60
2022-10-04T02:52:58.402Z,7.60
2022-10-04T02:55:29.692Z,7.60
2022-10-04T02:57:58.405Z,7.60
2022-10-04T03:00:30.493Z,7.60
2022-10-04T03:03:16.562Z,7.50
2022-10-04T03:06:02.911Z,7.50
2022-10-04T03:08:34.511Z,7.50
2022-10-04T03:11:04.302Z,7.50
2022-10-04T03:13:31.812Z,7.50
2022-10-04T03:15:58.552Z,7.50
2022-10-04T03:18:25.736Z,7.50
2022-10-04T03:20:52.541Z,7.40
2022-10-04T03:23:21.009Z,7.30
2022-10-04T03:26:00.997Z,7.50
2022-10-04T03:28:29.438Z,7.50
2022-10-04T03:30:58.025Z,7.50
2022-10-04T03:33:26.887Z,7.50
2022-10-04T03:35:56.335Z,7.50
2022-10-04T03:38:26.363Z,7.60
2022-10-04T03:40:57.216Z,7.50
2022-10-04T03:43:27.402Z,7.60
2022-10-04T03:45:55.632Z,7.50
2022-10-04T03:48:28.909Z,7.40
2022-10-04T03:50:55.789Z,7.50
2022-10-04T03:53:30.720Z,7.50
2022-10-04T03:56:03.408Z,7.40
2022-10-04T03:58:31.804Z,7.50
2022-10-04T04:01:45.326Z,7.50
2022-10-04T04:04:22.994Z,7.40
2022-10-04T04:06:50.004Z,7.30
2022-10-04T04:09:32.618Z,7.40
2022-10-04T04:12:01.909Z,7.40
2022-10-04T04:14:28.794Z,7.50
2022-10-04T04:17:27.577Z,7.40
2022-10-04T04:20:06.135Z,7.30
2022-10-04T04:22:35.488Z,7.20
2022-10-04T04:25:08.180Z,7.20
2022-10-04T04:27:37.912Z,7.30
2022-10-04T04:30:08.019Z,7.30
2022-10-04T04:32:41.949Z,7.40
2022-10-04T04:35:23.988Z,7.30
2022-10-04T04:38:15.144Z,7.30
2022-10-04T04:40:42.231Z,7.30
2022-10-04T04:43:14.615Z,7.40
2022-10-04T04:45:41.550Z,7.40
2022-10-04T04:48:08.809Z,7.30
2022-10-04T04:50:38.098Z,7.30
2022-10-04T04:53:09.771Z,7.40
2022-10-04T04:56:03.273Z,7.40
2022-10-04T04:58:36.161Z,7.40
2022-10-04T05:01:23.834Z,7.30
2022-10-04T05:04:09.037Z,7.30
2022-10-04T05:06:37.990Z,7.30
2022-10-04T05:09:05.880Z,7.20
2022-10-04T05:11:38.409Z,7.30
2022-10-04T05:14:09.455Z,7.20
2022-10-04T05:17:02.719Z,7.30
2022-10-04T05:19:33.006Z,7.20
2022-10-04T05:22:03.386Z,7.10
2022-10-04T05:24:39.963Z,7.20
2022-10-04T05:27:14.824Z,7.30
2022-10-04T05:30:06.184Z,7.30
2022-10-04T05:32:51.129Z,7.30
2022-10-04T05:35:20.748Z,7.30
2022-10-04T05:38:19.268Z,7.20
2022-10-04T05:40:55.449Z,7.30
2022-10-04T05:44:02.382Z,7.20
2022-10-04T05:46:31.174Z,7.30
2022-10-04T05:49:19.720Z,7.30
2022-10-04T05:51:49.282Z,7.30
2022-10-04T05:54:22.009Z,7.40
2022-10-04T05:57:12.354Z,7.30
2022-10-04T06:00:03.247Z,7.20
2022-10-04T06:03:00.302Z,7.30
2022-10-04T06:05:51.869Z,7.30
2022-10-04T06:08:36.460Z,7.30
2022-10-04T06:11:18.075Z,7.30
2022-10-04T06:13:51.318Z,7.40
2022-10-04T06:16:43.112Z,7.40
2022-10-04T06:19:41.857Z,7.40
2022-10-04T06:22:17.097Z,7.40
2022-10-04T06:24:50.605Z,7.40
2022-10-04T06:27:56.091Z,7.30
2022-10-04T06:30:22.902Z,7.40
2022-10-04T06:33:23.730Z,7.40
2022-10-04T06:35:50.337Z,7.50
2022-10-04T06:38:25.629Z,7.40
2022-10-04T06:41:13.925Z,7.40
2022-10-04T06:43:57.510Z,7.50
2022-10-04T06:46:31.951Z,7.50
2022-10-04T06:49:36.340Z,7.40
2022-10-04T06:52:26.441Z,7.50
2022-10-04T06:55:18.685Z,7.50
2022-10-04T06:58:23.722Z,7.60
2022-10-04T07:01:11.770Z,7.40
2022-10-04T07:04:03.190Z,7.50
2022-10-04T07:06:38.151Z,7.40
2022-10-04T07:09:07.949Z,7.50
2022-10-04T07:11:57.432Z,7.40
2022-10-04T07:14:37.592Z,7.60
2022-10-04T07:17:12.337Z,7.60
2022-10-04T07:19:52.900Z,7.70
2022-10-04T07:22:33.762Z,7.70
2022-10-04T07:25:15.099Z,7.70
2022-10-04T07:27:41.675Z,7.60
2022-10-04T07:30:15.711Z,7.70
2022-10-04T07:32:48.101Z,7.70
2022-10-04T07:35:49.131Z,7.80
2022-10-04T07:38:23.416Z,7.80
2022-10-04T07:41:07.546Z,7.90
2022-10-04T07:44:13.238Z,8.00
2022-10-04T07:46:42.997Z,8.00
2022-10-04T07:49:19.212Z,8.00
2022-10-04T07:52:19.785Z,8.00
2022-10-04T07:55:05.555Z,8.00
2022-10-04T07:57:40.983Z,8.30
2022-10-04T08:00:29.058Z,8.40
2022-10-04T08:03:24.889Z,8.40
2022-10-04T08:05:59.078Z,8.60
2022-10-04T08:08:45.559Z,8.60
2022-10-04T08:11:33.920Z,8.70
2022-10-04T08:14:32.706Z,8.70
2022-10-04T08:17:15.764Z,8.80
2022-10-04T08:19:54.590Z,8.90
2022-10-04T08:22:30.389Z,9.00
2022-10-04T08:25:15.781Z,9.00
2022-10-04T08:28:08.327Z,9.10
2022-10-04T08:30:59.390Z,9.10
2022-10-04T08:33:57.148Z,9.10
2022-10-04T08:37:03.111Z,9.00
2022-10-04T08:39:54.799Z,9.10
2022-10-04T08:43:04.973Z,9.30
2022-10-04T08:45:54.093Z,9.30
2022-10-04T08:48:46.261Z,9.40
2022-10-04T08:51:52.928Z,9.70
2022-10-04T08:54:41.768Z,9.70
2022-10-04T08:57:15.071Z,9.60
2022-10-04T09:00:12.377Z,9.70
2022-10-04T09:03:24.785Z,9.80
2022-10-04T09:06:23.508Z,10.00
2022-10-04T09:09:28.463Z,10.20
2022-10-04T09:12:31.889Z,10.30
2022-10-04T09:15:10.908Z,10.50
2022-10-04T09:18:16.242Z,10.70
2022-10-04T09:21:14.093Z,10.90
2022-10-04T09:24:11.453Z,10.90
2022-10-04T09:26:44.762Z,11.30
2022-10-04T09:29:36.502Z,11.50
2022-10-04T09:32:43.469Z,11.40
2022-10-04T09:35:34.294Z,11.60
2022-10-04T09:38:05.743Z,11.70
2022-10-04T09:41:01.947Z,12.20
2022-10-04T09:43:28.535Z,12.10
2022-10-04T09:46:29.300Z,12.20
2022-10-04T09:49:05.027Z,12.50
2022-10-04T09:51:31.682Z,12.60
2022-10-04T09:54:07.321Z,12.70
2022-10-04T09:57:17.679Z,12.70
2022-10-04T10:00:01.584Z,12.90
2022-10-04T10:02:55.473Z,13.10
2022-10-04T10:06:05.151Z,13.20
2022-10-04T10:08:39.672Z,13.30
2022-10-04T10:12:22.057Z,13.40
2022-10-04T10:15:07.423Z,13.90
2022-10-04T10:18:01.589Z,14.10
2022-10-04T10:20:43.230Z,14.20
2022-10-04T10:23:27.916Z,14.40
2022-10-04T10:26:22.923Z,14.60
2022-10-04T10:29:08.298Z,14.80
2022-10-04T10:31:51.343Z,15.00
2022-10-04T10:34:21.356Z,15.00
2022-10-04T10:37:00.405Z,15.00
2022-10-04T10:40:02.224Z,15.00
2022-10-04T10:43:04.130Z,14.90
2022-10-04T10:46:00.639Z,15.00
2022-10-04T10:48:55.129Z,15.20
2022-10-04T10:51:59.579Z,15.50
2022-10-04T10:54:59.689Z,15.50
2022-10-04T10:57:29.210Z,15.90
2022-10-04T11:00:17.390Z,15.90
2022-10-04T11:03:13.699Z,15.90
2022-10-04T11:06:14.076Z,16.00
2022-10-04T11:09:07.655Z,16.30
2022-10-04T11:11:41.951Z,16.50
2022-10-04T11:15:02.669Z,16.60
2022-10-04T11:17:52.823Z,16.80
2022-10-04T11:20:38.269Z,16.80
2022-10-04T11:23:26.898Z,17.30
2022-10-04T11:26:19.773Z,17.30
2022-10-04T11:28:56.671Z,17.40
2022-10-04T11:31:41.911Z,17.50
2022-10-04T11:34:59.527Z,17.40
2022-10-04T11:37:47.513Z,17.50
2022-10-04T11:40:55.414Z,18.00
2022-10-04T11:43:31.895Z,18.30
2022-10-04T11:46:19.888Z,18.30
2022-10-04T11:49:21.932Z,18.50
2022-10-04T11:52:02.519Z,18.40
2022-10-04T11:54:45.759Z,18.40
2022-10-04T11:57:28.586Z,18.90
2022-10-04T12:00:02.129Z,19.00
2022-10-04T12:02:40.714Z,19.20
2022-10-04T12:05:48.969Z,19.20
2022-10-04T12:09:06.001Z,18.90
2022-10-04T12:12:04.593Z,18.80
2022-10-04T12:14:43.302Z,19.10
2022-10-04T12:17:21.661Z,19.30
2022-10-04T12:20:19.620Z,19.30
2022-10-04T12:23:00.872Z,20.00
2022-10-04T12:25:55.624Z,20.00
2022-10-04T12:28:44.220Z,19.90
2022-10-04T12:31:28.750Z,19.80
2022-10-04T12:34:14.935Z,20.00
2022-10-04T12:36:50.251Z,19.90
2022-10-04T12:39:31.865Z,20.20
2022-10-04T12:42:32.335Z,19.80
2022-10-04T12:45:32.605Z,19.60
2022-10-04T12:48:33.049Z,20.10
2022-10-04T12:51:09.762Z,20.20
2022-10-04T12:53:58.743Z,20.00
2022-10-04T12:56:51.014Z,20.20
2022-10-04T12:59:49.525Z,20.30
2022-10-04T13:02:54.334Z,19.90
2022-10-04T13:06:02.850Z,20.30
2022-10-04T13:09:21.394Z,20.50
2022-10-04T13:12:15.543Z,20.90
2022-10-04T13:15:23.153Z,20.60
2022-10-04T13:18:12.474Z,20.80
2022-10-04T13:20:41.891Z,20.90
2022-10-04T13:23:26.223Z,20.90
2022-10-04T13:26:04.009Z,20.50
2022-10-04T13:28:56.705Z,20.90
2022-10-04T13:31:32.757Z,21.20
2022-10-04T13:34:16.590Z,21.20
2022-10-04T13:37:07.701Z,20.90
2022-10-04T13:39:34.290Z,20.70
2022-10-04T13:42:20.292Z,21.00
2022-10-04T13:45:05.800Z,21.40
2022-10-04T13:47:54.493Z,21.20
2022-10-04T13:50:47.330Z,21.70
2022-10-04T13:53:44.209Z,21.80
2022-10-04T13:56:37.890Z,21.80
2022-10-04T13:59:24.996Z,21.60
2022-10-04T14:02:12.642Z,21.60
2022-10-04T14:05:17.266Z,21.50
2022-10-04T14:08:05.297Z,21.00
2022-10-04T14:11:09.640Z,21.40
2022-10-04T14:13:58.143Z,21.30
2022-10-04T14:20:36.081Z,21.60
2022-10-04T14:23:11.615Z,21.20
2022-10-04T14:25:44.014Z,21.10
2022-10-04T14:28:16.937Z,21.20
2022-10-04T14:30:55.679Z,21.20
2022-10-04T14:33:55.944Z,21.40
2022-10-04T14:37:01.007Z,21.30
2022-10-04T14:40:05.487Z,20.90
2022-10-04T14:42:45.610Z,21.00
2022-10-04T14:45:54.826Z,21.20
2022-10-04T14:49:11.551Z,21.20
2022-10-04T14:52:04.319Z,21.10
2022-10-04T14:54:42.338Z,20.90
2022-10-04T14:57:24.079Z,20.80
2022-10-04T15:00:04.333Z,20.80
2022-10-04T15:02:39.949Z,20.70
2022-10-04T15:05:29.886Z,20.80
2022-10-04T15:08:28.333Z,20.40
2022-10-04T15:11:14.171Z,20.40
2022-10-04T15:14:01.168Z,20.50
2022-10-04T15:16:41.333Z,20.30
2022-10-04T15:19:20.101Z,20.00
2022-10-04T15:21:56.051Z,20.10
2022-10-04T15:24:27.692Z,20.10
2022-10-04T15:27:31.734Z,19.90
2022-10-04T15:30:10.381Z,19.80
2022-10-04T15:32:58.688Z,19.70
2022-10-04T15:38:34.766Z,19.70
2022-10-04T15:41:19.194Z,19.60
2022-10-04T15:43:50.097Z,19.40
2022-10-04T15:46:54.174Z,19.30
2022-10-04T15:49:26.646Z,19.20
2022-10-04T15:52:03.509Z,19.00
2022-10-04T15:55:12.152Z,19.00
2022-10-04T15:57:44.855Z,19.00
2022-10-04T16:00:25.731Z,18.90
2022-10-04T16:03:30.033Z,18.80
2022-10-04T16:06:06.480Z,18.60
2022-10-04T16:08:41.767Z,18.50
2022-10-04T16:11:33.617Z,18.50
2022-10-04T16:14:28.212Z,18.40
2022-10-04T16:17:11.158Z,18.20
2022-10-04T16:20:02.069Z,18.00
2022-10-04T16:22:32.662Z,18.00
2022-10-04T16:25:38.307Z,18.00
2022-10-04T16:28:29.516Z,17.80
2022-10-04T16:31:24.824Z,17.60
2022-10-04T16:34:22.418Z,17.40
2022-10-04T16:36:58.749Z,17.20
2022-10-04T16:39:59.231Z,17.10
2022-10-04T16:42:45.321Z,17.00
2022-10-04T16:45:12.324Z,16.90
2022-10-04T16:47:48.660Z,16.70
2022-10-04T16:50:43.898Z,16.60
2022-10-04T16:53:35.246Z,16.70
2022-10-04T16:56:16.377Z,16.40
2022-10-04T16:59:21.457Z,16.10
2022-10-04T17:02:06.657Z,15.90
2022-10-04T17:04:36.329Z,15.70
2022-10-04T17:07:21.281Z,15.70
2022-10-04T17:10:27.603Z,15.50
2022-10-04T17:13:23.497Z,15.30
2022-10-04T17:16:01.335Z,15.20
2022-10-04T17:18:46.879Z,15.10
2022-10-04T17:21:46.859Z,15.10
2022-10-04T17:24:47.576Z,14.90
2022-10-04T17:27:34.100Z,14.70
2022-10-04T17:30:19.444Z,14.60
2022-10-04T17:32:59.151Z,14.50
2022-10-04T17:35:50.086Z,14.40
2022-10-04T17:38:33.755Z,14.40
2022-10-04T17:41:21.600Z,14.40
2022-10-04T17:44:27.190Z,14.20
2022-10-04T17:47:01.591Z,14.10
2022-10-04T17:50:14.339Z,14.20
2022-10-04T17:53:05.768Z,14.10
2022-10-04T17:55:58.717Z,14.00
2022-10-04T17:58:49.874Z,13.90
2022-10-04T18:01:37.936Z,13.90
2022-10-04T18:04:23.598Z,13.80
2022-10-04T18:06:57.120Z,13.70
2022-10-04T18:09:26.801Z,13.70
2022-10-04T18:12:00.808Z,13.60
2022-10-04T18:14:30.431Z,13.50
2022-10-04T18:17:04.001Z,13.50
2022-10-04T18:19:52.141Z,13.40
2022-10-04T18:22:21.466Z,13.30
2022-10-04T18:25:09.911Z,13.30
2022-10-04T18:27:54.201Z,13.30
2022-10-04T18:30:22.578Z,13.30
2022-10-04T18:32:57.290Z,13.30
2022-10-04T18:35:26.679Z,13.30
2022-10-04T18:38:18.186Z,13.30
2022-10-04T18:40:56.466Z,13.20
2022-10-04T18:43:30.442Z,13.10
2022-10-04T18:46:13.862Z,13.00
2022-10-04T18:48:54.376Z,13.00
2022-10-04T18:51:35.683Z,12.90
2022-10-04T18:54:11.015Z,12.90
2022-10-04T18:57:10.080Z,12.90
2022-10-04T19:00:18.673Z,12.90
2022-10-04T19:02:53.938Z,12.80
2022-10-04T19:05:39.162Z,12.90
2022-10-04T19:08:28.959Z,12.80
2022-10-04T19:11:08.832Z,12.70
2022-10-04T19:14:23.128Z,12.80
2022-10-04T19:16:58.771Z,12.70
2022-10-04T19:19:55.734Z,12.60
2022-10-04T19:22:26.591Z,12.60
2022-10-04T19:25:24.323Z,12.60
2022-10-04T19:28:10.681Z,12.50
2022-10-04T19:30:43.504Z,12.30
2022-10-04T19:33:37.597Z,12.30
2022-10-04T19:36:31.423Z,12.20
2022-10-04T19:39:35.410Z,12.10
2022-10-04T19:42:14.667Z,12.00
2022-10-04T19:45:03.230Z,12.00
2022-10-04T19:47:48.836Z,12.00
2022-10-04T19:50:24.905Z,11.90
2022-10-04T19:52:55.775Z,11.80
2022-10-04T19:55:47.115Z,11.80
2022-10-04T19:58:50.842Z,11.80
2022-10-04T20:01:21.369Z,11.60
2022-10-04T20:04:08.477Z,11.70
2022-10-04T20:06:38.344Z,11.50
2022-10-04T20:09:36.877Z,11.40
2022-10-04T20:12:26.462Z,11.40
2022-10-04T20:15:14.815Z,11.40
2022-10-04T20:17:43.149Z,11.50
2022-10-04T20:20:13.123Z,11.40
2022-10-04T20:22:52.220Z,11.40
2022-10-04T20:25:45.526Z,11.30
2022-10-04T20:28:41.808Z,11.30
2022-10-04T20:31:11.343Z,11.30
2022-10-04T20:33:44.420Z,11.20
2022-10-04T20:36:20.359Z,11.30
2022-10-04T20:38:52.730Z,11.20
2022-10-04T20:41:28.559Z,11.20
2022-10-04T20:44:03.838Z,11.10
2022-10-04T20:46:39.944Z,11.00
2022-10-04T20:49:17.119Z,10.90
2022-10-04T20:51:50.623Z,10.90
2022-10-04T20:54:18.594Z,10.90
2022-10-04T20:56:50.055Z,10.90
2022-10-04T20:59:17.834Z,10.80
2022-10-04T21:02:05.584Z,10.80
2022-10-04T21:04:33.254Z,10.80
2022-10-04T21:07:02.346Z,10.70
2022-10-04T21:09:33.814Z,10.70
2022-10-04T21:12:01.691Z,10.60
2022-10-04T21:14:32.320Z,10.70
2022-10-04T21:17:04.114Z,10.60
2022-10-04T21:19:33.738Z,10.60
2022-10-04T21:22:02.752Z,10.50
2022-10-04T21:24:42.499Z,10.50
2022-10-04T21:27:26.548Z,10.50
2022-10-04T21:29:53.665Z,10.40
2022-10-04T21:32:24.461Z,10.30
2022-10-04T21:34:54.146Z,10.30
2022-10-04T21:37:21.618Z,10.30
2022-10-04T21:39:48.302Z,10.30
2022-10-04T21:42:15.093Z,10.20
2022-10-04T21:44:41.863Z,10.20
2022-10-04T21:47:09.055Z,10.20
2022-10-04T21:49:35.695Z,10.10
2022-10-04T21:52:02.603Z,10.10
2022-10-04T21:54:29.289Z,10.10
2022-10-04T21:56:55.978Z,10.10
2022-10-04T21:59:22.875Z,10.00
2022-10-04T22:01:49.586Z,10.00
2022-10-04T22:04:16.943Z,10.00
2022-10-04T22:06:44.060Z,9.90
2022-10-04T22:09:11.468Z,9.90
2022-10-04T22:11:38.330Z,9.80
2022-10-04T22:14:05.039Z,9.90
2022-10-04T22:16:31.802Z,9.80
2022-10-04T22:18:58.584Z,9.80
2022-10-04T22:21:25.324Z,9.70
2022-10-04T22:23:52.156Z,9.70
2022-10-04T22:26:21.057Z,9.80
2022-10-04T22:28:53.069Z,9.70
2022-10-04T22:31:22.303Z,9.70
2022-10-04T22:33:50.195Z,9.70
2022-10-04T22:36:36.737Z,9.70
2022-10-04T22:39:15.199Z,9.70
2022-10-04T22:41:53.283Z,9.70
2022-10-04T22:44:24.010Z,9.60
2022-10-04T22:46:59.092Z,9.60
2022-10-04T22:49:31.704Z,9.50
2022-10-04T22:52:00.516Z,9.40
2022-10-04T22:54:32.237Z,9.50
2022-10-04T22:56:59.461Z,9.60
2022-10-04T22:59:37.658Z,9.50
2022-10-04T23:02:10.641Z,9.50
2022-10-04T23:04:37.371Z,9.40
2022-10-04T23:07:04.078Z,9.40
2022-10-04T23:09:30.732Z,9.40
2022-10-04T23:11:57.376Z,9.20
2022-10-04T23:14:24.036Z,9.30
2022-10-04T23:16:50.704Z,9.30
2022-10-04T23:19:20.217Z,9.30
2022-10-04T23:21:48.795Z,9.40
2022-10-04T23:24:18.509Z,9.50
2022-10-04T23:26:48.350Z,9.20
2022-10-04T23:29:20.301Z,9.10
2022-10-04T23:31:48.182Z,9.00
2022-10-04T23:34:21.632Z,9.20
2022-10-04T23:36:48.971Z,9.10
2022-10-04T23:39:24.921Z,9.10
2022-10-04T23:41:53.890Z,9.00
2022-10-04T23:44:28.887Z,9.00
2022-10-04T23:46:55.933Z,8.90
2022-10-04T23:49:22.752Z,8.80
2022-10-04T23:51:56.427Z,9.00
2022-10-04T23:54:23.131Z,8.90
2022-10-04T23:56:51.022Z,8.80
2022-10-04T23:59:19.939Z,8.80
